createdAt,value
2017-07-01T00:01:19.789Z,67.80
2017-07-01T00:03:47.305Z,67.50
2017-07-01T00:06:15.607Z,67.90
2017-07-01T00:08:43.118Z,67.80
2017-07-01T00:11:12.429Z,68.10
2017-07-01T00:13:39.909Z,68.10
2017-07-01T00:16:07.413Z,68.00
2017-07-01T00:18:34.900Z,67.90
2017-07-01T00:21:02.400Z,68.00
2017-07-01T00:23:29.895Z,68.20
2017-07-01T00:25:57.412Z,68.10
2017-07-01T00:28:24.896Z,68.80
2017-07-01T00:30:52.401Z,68.50
2017-07-01T00:33:19.888Z,68.80
2017-07-01T00:35:48.203Z,68.60
2017-07-01T00:38:15.725Z,68.40
2017-07-01T00:40:43.260Z,68.90
2017-07-01T00:43:10.775Z,68.90
2017-07-01T00:45:39.053Z,69.20
2017-07-01T00:48:06.552Z,69.10
2017-07-01T00:50:34.034Z,69.10
2017-07-01T00:53:01.544Z,69.10
2017-07-01T00:55:29.020Z,69.20
2017-07-01T00:57:56.528Z,69.10
2017-07-01T01:00:24.014Z,69.10
2017-07-01T01:02:51.515Z,69.00
2017-07-01T01:05:19.038Z,69.20
2017-07-01T01:07:46.558Z,69.30
2017-07-01T01:10:14.112Z,69.50
2017-07-01T01:12:41.646Z,69.60
2017-07-01T01:15:09.147Z,70.00
2017-07-01T01:17:36.650Z,70.10
2017-07-01T01:20:04.131Z,70.60
2017-07-01T01:22:31.656Z,70.60
2017-07-01T01:24:59.145Z,70.60
2017-07-01T01:27:26.659Z,70.30
2017-07-01T01:29:54.905Z,71.10
2017-07-01T01:32:22.425Z,71.10
2017-07-01T01:34:49.915Z,71.00
2017-07-01T01:37:18.173Z,71.70
2017-07-01T01:39:45.707Z,71.70
2017-07-01T01:42:14.005Z,71.80
2017-07-01T01:44:41.553Z,71.70
2017-07-01T01:47:09.084Z,71.30
2017-07-01T01:49:36.622Z,71.20
2017-07-01T01:52:04.121Z,71.30
2017-07-01T01:54:31.633Z,71.30
2017-07-01T01:56:59.133Z,71.50
2017-07-01T01:59:27.414Z,71.60
2017-07-01T02:01:54.897Z,71.40
2017-07-01T02:04:22.541Z,71.60
2017-07-01T02:06:50.041Z,71.80
2017-07-01T02:09:17.585Z,72.10
2017-07-01T02:12:05.329Z,72.30
2017-07-01T02:14:32.869Z,71.90
2017-07-01T02:17:21.836Z,72.10
2017-07-01T02:19:49.347Z,72.40
2017-07-01T02:22:38.187Z,72.90
2017-07-01T02:25:26.491Z,73.30
2017-07-01T02:27:53.990Z,73.80
2017-07-01T02:30:21.511Z,73.70
2017-07-01T02:33:08.412Z,73.80
2017-07-01T02:35:51.741Z,73.70
2017-07-01T02:38:19.238Z,74.00
2017-07-01T02:40:46.756Z,73.80
2017-07-01T02:43:15.048Z,74.00
2017-07-01T02:45:46.469Z,74.00
2017-07-01T02:48:34.781Z,74.70
2017-07-01T02:51:21.417Z,74.80
2017-07-01T02:53:48.907Z,74.70
2017-07-01T02:56:19.353Z,74.70
2017-07-01T02:59:04.637Z,74.30
2017-07-01T03:01:32.140Z,74.30
2017-07-01T03:03:59.643Z,74.30
2017-07-01T03:06:27.149Z,74.10
2017-07-01T03:08:54.652Z,74.50
2017-07-01T03:11:22.917Z,74.90
2017-07-01T03:13:51.167Z,75.10
2017-07-01T03:16:19.451Z,75.30
2017-07-01T03:18:46.949Z,75.20
2017-07-01T03:21:14.458Z,75.40
2017-07-01T03:23:41.979Z,75.40
2017-07-01T03:26:09.492Z,75.50
2017-07-01T03:28:36.976Z,75.10
2017-07-01T03:31:04.476Z,75.10
2017-07-01T03:33:31.968Z,75.30
2017-07-01T03:35:59.456Z,75.10
2017-07-01T03:38:32.872Z,75.10
2017-07-01T03:41:21.112Z,74.70
2017-07-01T03:43:56.063Z,74.70
2017-07-01T03:46:39.187Z,74.90
2017-07-01T03:49:24.072Z,75.20
2017-07-01T03:51:51.581Z,74.90
2017-07-01T03:54:37.479Z,74.80
2017-07-01T03:57:04.980Z,74.70
2017-07-01T03:59:32.463Z,75.10
2017-07-01T04:01:59.990Z,74.80
2017-07-01T04:04:28.251Z,74.80
2017-07-01T04:06:55.733Z,74.80
2017-07-01T04:09:23.241Z,75.20
2017-07-01T04:11:52.120Z,75.30
2017-07-01T04:14:19.710Z,75.30
2017-07-01T04:16:47.202Z,75.10
2017-07-01T04:19:18.016Z,74.90
2017-07-01T04:21:45.531Z,74.80
2017-07-01T04:24:13.048Z,74.60
2017-07-01T04:26:40.536Z,74.40
2017-07-01T04:29:08.822Z,74.30
2017-07-01T04:31:36.319Z,74.20
2017-07-01T04:34:03.820Z,74.50
2017-07-01T04:36:31.316Z,74.70
2017-07-01T04:39:04.349Z,74.80
2017-07-01T04:41:43.611Z,74.80
2017-07-01T04:44:14.941Z,74.70
2017-07-01T04:46:42.429Z,74.80
2017-07-01T04:49:10.028Z,74.70
2017-07-01T04:51:55.848Z,74.50
2017-07-01T04:54:26.841Z,74.50
2017-07-01T04:57:01.088Z,74.90
2017-07-01T04:59:54.060Z,74.90
2017-07-01T05:02:21.543Z,74.70
2017-07-01T05:04:49.872Z,75.20
2017-07-01T05:07:55.640Z,75.30
2017-07-01T05:10:34.988Z,75.00
2017-07-01T05:13:02.488Z,75.00
2017-07-01T05:15:44.875Z,74.70
2017-07-01T05:18:12.356Z,74.30
2017-07-01T05:20:42.009Z,74.20
2017-07-01T05:23:27.071Z,73.80
2017-07-01T05:26:09.486Z,74.00
2017-07-01T05:28:47.056Z,73.30
2017-07-01T05:31:29.452Z,73.60
2017-07-01T05:34:10.346Z,73.50
2017-07-01T05:36:44.416Z,73.70
2017-07-01T05:39:27.596Z,73.70
2017-07-01T05:42:01.020Z,73.60
2017-07-01T05:44:44.225Z,73.50
2017-07-01T05:47:12.712Z,73.20
2017-07-01T05:49:40.222Z,73.30
2017-07-01T05:52:08.341Z,73.30
2017-07-01T05:54:35.850Z,73.50
2017-07-01T05:57:03.374Z,73.90
2017-07-01T05:59:46.707Z,73.70
2017-07-01T06:02:29.101Z,73.60
2017-07-01T06:04:57.358Z,73.20
2017-07-01T06:07:24.871Z,73.20
2017-07-01T06:13:13.116Z,72.70
2017-07-01T06:15:58.493Z,71.70
2017-07-01T06:18:31.388Z,72.00
2017-07-01T06:20:59.741Z,72.00
2017-07-01T06:23:32.557Z,72.60
2017-07-01T06:26:36.649Z,72.20
2017-07-01T06:29:16.065Z,72.20
2017-07-01T06:31:54.609Z,72.10
2017-07-01T06:34:30.469Z,72.10
2017-07-01T06:36:57.988Z,72.00
2017-07-01T06:39:25.483Z,72.10
2017-07-01T06:41:54.026Z,72.40
2017-07-01T06:44:24.450Z,72.80
2017-07-01T06:47:06.047Z,73.00
2017-07-01T06:49:44.126Z,72.60
2017-07-01T06:52:24.001Z,72.50
2017-07-01T06:54:52.308Z,73.10
2017-07-01T06:57:19.948Z,73.00
2017-07-01T06:59:47.622Z,72.60
2017-07-01T07:02:16.118Z,72.40
2017-07-01T07:04:44.496Z,72.20
2017-07-01T07:07:12.016Z,72.20
2017-07-01T07:09:41.039Z,72.00
2017-07-01T07:12:08.532Z,72.00
2017-07-01T07:14:36.128Z,72.40
2017-07-01T07:17:03.632Z,72.00
2017-07-01T07:19:31.131Z,71.70
2017-07-01T07:21:58.636Z,72.10
2017-07-01T07:24:26.219Z,72.20
2017-07-01T07:26:54.492Z,72.00
2017-07-01T07:29:22.013Z,72.30
2017-07-01T07:31:49.527Z,72.20
2017-07-01T07:34:19.717Z,72.20
2017-07-01T07:36:47.969Z,72.40
2017-07-01T07:39:15.556Z,72.30
2017-07-01T07:41:43.060Z,72.30
2017-07-01T07:44:10.573Z,72.50
2017-07-01T07:46:38.054Z,72.40
2017-07-01T07:49:06.342Z,73.10
2017-07-01T07:51:33.890Z,73.00
2017-07-01T07:54:01.417Z,74.30
2017-07-01T07:56:28.942Z,75.60
2017-07-01T07:58:57.213Z,75.90
2017-07-01T08:01:24.732Z,75.90
2017-07-01T08:03:52.228Z,75.50
2017-07-01T08:06:19.732Z,76.60
2017-07-01T08:08:47.992Z,77.20
2017-07-01T08:11:15.526Z,77.10
2017-07-01T08:13:43.021Z,77.80
2017-07-01T08:16:10.529Z,77.90
2017-07-01T08:18:38.040Z,77.90
2017-07-01T08:21:05.546Z,78.50
2017-07-01T08:23:33.156Z,79.50
2017-07-01T08:26:00.676Z,80.00
2017-07-01T08:28:28.176Z,80.40
2017-07-01T08:30:55.692Z,80.20
2017-07-01T08:33:23.181Z,80.00
2017-07-01T08:35:50.704Z,80.10
2017-07-01T08:38:18.201Z,80.60
2017-07-01T08:40:46.455Z,80.00
2017-07-01T08:43:13.988Z,79.70
2017-07-01T08:45:41.496Z,79.50
2017-07-01T08:48:08.980Z,80.90
2017-07-01T08:50:37.274Z,79.20
2017-07-01T08:53:04.776Z,79.80
2017-07-01T08:55:32.360Z,80.20
2017-07-01T08:58:00.054Z,80.50
2017-07-01T09:00:27.587Z,80.10
2017-07-01T09:02:56.100Z,80.60
2017-07-01T09:05:24.521Z,80.70
2017-07-01T09:07:52.028Z,79.60
2017-07-01T09:10:19.512Z,79.80
2017-07-01T09:12:47.020Z,80.70
2017-07-01T09:15:14.517Z,81.20
2017-07-01T09:17:42.044Z,79.80
2017-07-01T09:20:09.629Z,80.20
2017-07-01T09:22:37.130Z,80.60
2017-07-01T09:25:04.628Z,80.10
2017-07-01T09:27:32.148Z,79.90
2017-07-01T09:30:00.395Z,80.60
2017-07-01T09:32:27.900Z,80.60
2017-07-01T09:34:55.401Z,80.60
2017-07-01T09:37:22.908Z,80.70
2017-07-01T09:39:50.401Z,81.40
2017-07-01T09:42:17.929Z,82.10
2017-07-01T09:44:45.419Z,82.20
2017-07-01T09:47:12.948Z,81.70
2017-07-01T09:49:40.444Z,81.80
2017-07-01T09:52:08.711Z,83.20
2017-07-01T09:54:36.976Z,81.00
2017-07-01T09:57:04.461Z,80.80
2017-07-01T09:59:31.984Z,80.20
2017-07-01T10:01:59.528Z,81.00
2017-07-01T10:04:27.037Z,80.70
2017-07-01T10:06:54.520Z,81.10
2017-07-01T10:09:22.039Z,80.70
2017-07-01T10:11:49.520Z,80.90
2017-07-01T10:14:17.023Z,80.10
2017-07-01T10:16:44.509Z,80.90
2017-07-01T10:19:12.029Z,81.60
2017-07-01T10:21:39.508Z,80.30
2017-07-01T10:24:07.016Z,80.00
2017-07-01T10:26:34.507Z,79.40
2017-07-01T10:29:02.017Z,79.40
2017-07-01T10:31:29.496Z,80.60
2017-07-01T10:33:57.008Z,80.30
2017-07-01T10:36:24.520Z,81.40
2017-07-01T10:38:52.025Z,81.10
2017-07-01T10:41:20.269Z,82.70
2017-07-01T10:43:47.774Z,81.90
2017-07-01T10:46:15.277Z,80.90
2017-07-01T10:48:43.528Z,80.30
2017-07-01T10:51:11.040Z,80.20
2017-07-01T10:53:38.526Z,80.60
2017-07-01T10:56:06.800Z,81.30
2017-07-01T10:58:34.285Z,81.30
2017-07-01T11:01:01.801Z,79.40
2017-07-01T11:03:29.284Z,80.70
2017-07-01T11:05:56.791Z,79.90
2017-07-01T11:08:24.282Z,77.70
2017-07-01T11:10:52.552Z,78.00
2017-07-01T11:13:20.045Z,78.00
2017-07-01T11:15:47.567Z,76.70
2017-07-01T11:18:15.132Z,75.60
2017-07-01T11:20:43.166Z,73.80
2017-07-01T11:23:10.655Z,74.00
2017-07-01T11:25:38.161Z,73.60
2017-07-01T11:28:05.656Z,73.00
2017-07-01T11:30:33.936Z,72.00
2017-07-01T11:33:01.420Z,71.90
2017-07-01T11:35:28.932Z,72.00
2017-07-01T11:37:56.433Z,72.80
2017-07-01T11:40:23.917Z,73.60
2017-07-01T11:42:51.424Z,73.60
2017-07-01T11:45:18.908Z,73.00
2017-07-01T11:47:46.428Z,73.50
2017-07-01T11:50:13.931Z,72.00
2017-07-01T11:52:41.476Z,72.80
2017-07-01T11:55:08.964Z,73.10
2017-07-01T11:57:36.464Z,74.10
2017-07-01T12:00:03.940Z,75.20
2017-07-01T12:02:32.217Z,75.20
2017-07-01T12:04:59.716Z,75.00
2017-07-01T12:07:27.216Z,75.30
2017-07-01T12:09:54.700Z,75.70
2017-07-01T12:12:22.208Z,73.40
2017-07-01T12:14:49.700Z,70.70
2017-07-01T12:17:18.070Z,70.50
2017-07-01T12:19:45.571Z,69.00
2017-07-01T12:22:13.092Z,68.80
2017-07-01T12:24:40.589Z,69.00
2017-07-01T12:27:08.093Z,69.70
2017-07-01T12:29:35.576Z,68.00
2017-07-01T12:32:03.843Z,70.30
2017-07-01T12:34:32.090Z,72.30
2017-07-01T12:36:59.568Z,72.30
2017-07-01T12:39:27.092Z,73.60
2017-07-01T12:41:55.429Z,72.90
2017-07-01T12:44:22.980Z,73.20
2017-07-01T12:46:52.052Z,71.00
2017-07-01T12:49:19.854Z,70.30
2017-07-01T12:51:47.362Z,70.40
2017-07-01T12:54:15.651Z,71.90
2017-07-01T12:56:43.184Z,71.90
2017-07-01T12:59:11.719Z,72.60
2017-07-01T13:01:39.332Z,71.50
2017-07-01T13:04:06.868Z,72.20
2017-07-01T13:06:34.797Z,73.90
2017-07-01T13:09:02.304Z,74.10
2017-07-01T13:11:29.813Z,74.50
2017-07-01T13:14:03.115Z,75.10
2017-07-01T13:16:31.190Z,75.40
2017-07-01T13:18:59.299Z,75.10
2017-07-01T13:21:26.820Z,75.70
2017-07-01T13:23:54.413Z,74.70
2017-07-01T13:26:22.100Z,73.90
2017-07-01T13:28:50.755Z,72.70
2017-07-01T13:31:19.185Z,72.90
2017-07-01T13:33:46.697Z,73.70
2017-07-01T13:36:14.756Z,74.30
2017-07-01T13:38:42.454Z,75.50
2017-07-01T13:41:10.026Z,76.70
2017-07-01T13:43:39.228Z,77.80
2017-07-01T13:46:06.756Z,78.00
2017-07-01T13:48:34.244Z,79.60
2017-07-01T13:51:01.768Z,79.60
2017-07-01T13:53:29.702Z,79.50
2017-07-01T13:55:58.236Z,79.80
2017-07-01T13:58:25.986Z,80.40
2017-07-01T14:00:53.792Z,80.10
2017-07-01T14:03:21.312Z,79.80
2017-07-01T14:05:48.929Z,80.00
2017-07-01T14:08:16.501Z,80.10
2017-07-01T14:10:44.226Z,80.00
2017-07-01T14:13:11.854Z,79.20
2017-07-01T14:15:39.630Z,79.50
2017-07-01T14:18:07.189Z,79.50
2017-07-01T14:20:34.765Z,79.90
2017-07-01T14:23:03.148Z,80.70
2017-07-01T14:25:31.465Z,81.10
2017-07-01T14:27:58.982Z,81.10
2017-07-01T14:30:26.566Z,81.10
2017-07-01T14:32:54.374Z,80.60
2017-07-01T14:35:21.890Z,81.60
2017-07-01T14:37:50.400Z,82.20
2017-07-01T14:40:18.519Z,82.00
2017-07-01T14:42:46.087Z,81.30
2017-07-01T14:45:14.151Z,81.60
2017-07-01T14:47:42.801Z,82.30
2017-07-01T14:50:10.601Z,82.10
2017-07-01T14:52:38.276Z,81.60
2017-07-01T14:55:05.760Z,81.60
2017-07-01T14:57:33.265Z,81.90
2017-07-01T15:00:00.740Z,81.80
2017-07-01T15:02:28.243Z,81.60
2017-07-01T15:04:55.736Z,82.00
2017-07-01T15:07:23.253Z,82.90
2017-07-01T15:09:50.756Z,83.50
2017-07-01T15:12:18.263Z,82.60
2017-07-01T15:14:46.133Z,83.60
2017-07-01T15:17:13.817Z,83.60
2017-07-01T15:19:42.156Z,84.20
2017-07-01T15:22:09.874Z,84.20
2017-07-01T15:24:37.616Z,83.40
2017-07-01T15:27:06.065Z,83.60
2017-07-01T15:29:33.569Z,83.80
2017-07-01T15:32:02.249Z,83.60
2017-07-01T15:34:30.528Z,84.20
2017-07-01T15:36:59.048Z,83.80
2017-07-01T15:39:26.662Z,83.70
2017-07-01T15:41:54.150Z,83.90
2017-07-01T15:44:21.678Z,83.70
2017-07-01T15:46:49.184Z,84.00
2017-07-01T15:49:16.703Z,83.70
2017-07-01T15:51:45.051Z,84.40
2017-07-01T15:54:12.749Z,84.30
2017-07-01T15:56:40.371Z,84.10
2017-07-01T15:59:07.884Z,83.90
2017-07-01T16:01:48.249Z,83.90
2017-07-01T16:04:17.295Z,84.50
2017-07-01T16:06:46.537Z,84.50
2017-07-01T16:09:14.085Z,84.00
2017-07-01T16:11:41.572Z,84.60
2017-07-01T16:14:09.092Z,84.20
2017-07-01T16:16:36.576Z,84.90
2017-07-01T16:19:04.852Z,85.10
2017-07-01T16:21:32.584Z,85.10
2017-07-01T16:24:00.084Z,84.70
2017-07-01T16:26:27.583Z,85.00
2017-07-01T16:28:56.124Z,84.80
2017-07-01T16:31:23.608Z,84.70
2017-07-01T16:33:51.092Z,84.40
2017-07-01T16:36:18.604Z,84.30
2017-07-01T16:38:46.112Z,84.10
2017-07-01T16:41:14.387Z,84.20
2017-07-01T16:43:41.904Z,84.20
2017-07-01T16:48:46.018Z,84.30
2017-07-01T16:51:13.788Z,84.30
2017-07-01T16:53:41.305Z,85.20
2017-07-01T16:56:08.817Z,85.20
2017-07-01T16:58:36.367Z,85.30
2017-07-01T17:01:08.983Z,85.90
2017-07-01T17:03:37.288Z,85.20
2017-07-01T17:06:05.437Z,85.60
2017-07-01T17:08:33.242Z,86.10
2017-07-01T17:11:01.451Z,85.70
2017-07-01T17:13:28.976Z,85.90
2017-07-01T17:15:56.706Z,86.40
2017-07-01T17:18:24.344Z,86.30
2017-07-01T17:20:52.474Z,86.70
2017-07-01T17:23:20.013Z,87.00
2017-07-01T17:25:47.582Z,86.50
2017-07-01T17:28:15.132Z,86.40
2017-07-01T17:30:42.669Z,86.30
2017-07-01T17:33:10.244Z,86.50
2017-07-01T17:35:37.737Z,86.60
2017-07-01T17:38:05.244Z,87.10
2017-07-01T17:40:32.765Z,87.30
2017-07-01T17:43:00.269Z,87.40
2017-07-01T17:45:27.759Z,88.00
2017-07-01T17:47:55.268Z,88.80
2017-07-01T17:50:22.761Z,88.20
2017-07-01T17:52:50.305Z,87.90
2017-07-01T17:55:17.817Z,87.90
2017-07-01T17:57:45.353Z,88.30
2017-07-01T18:00:12.868Z,88.10
2017-07-01T18:02:40.390Z,88.00
2017-07-01T18:05:07.905Z,88.00
2017-07-01T18:07:35.416Z,87.80
2017-07-01T18:10:02.923Z,88.40
2017-07-01T18:12:30.448Z,88.80
2017-07-01T18:14:57.940Z,89.00
2017-07-01T18:17:25.456Z,88.60
2017-07-01T18:19:53.717Z,88.60
2017-07-01T18:22:21.248Z,88.60
2017-07-01T18:24:48.757Z,88.80
2017-07-01T18:27:16.972Z,88.20
2017-07-01T18:29:44.486Z,88.50
2017-07-01T18:32:11.976Z,88.30
2017-07-01T18:34:39.484Z,88.90
2017-07-01T18:37:07.736Z,89.20
2017-07-01T18:39:35.235Z,89.10
2017-07-01T18:42:02.741Z,89.20
2017-07-01T18:44:30.252Z,89.10
2017-07-01T18:46:57.756Z,89.20
2017-07-01T18:49:25.268Z,88.50
2017-07-01T18:51:53.516Z,88.60
2017-07-01T18:54:21.789Z,88.70
2017-07-01T18:56:49.279Z,88.60
2017-07-01T18:59:16.789Z,89.20
2017-07-01T19:01:44.285Z,89.60
2017-07-01T19:04:11.801Z,89.10
2017-07-01T19:06:39.287Z,88.70
2017-07-01T19:09:06.804Z,88.50
2017-07-01T19:11:34.300Z,88.50
2017-07-01T19:14:01.849Z,88.70
2017-07-01T19:16:29.343Z,88.60
2017-07-01T19:18:56.862Z,88.50
2017-07-01T19:21:24.359Z,87.80
2017-07-01T19:23:51.844Z,88.20
2017-07-01T19:26:19.365Z,88.10
2017-07-01T19:28:46.847Z,88.70
2017-07-01T19:31:14.345Z,88.80
2017-07-01T19:33:41.832Z,88.20
2017-07-01T19:36:09.344Z,88.40
2017-07-01T19:38:36.832Z,88.50
2017-07-01T19:41:04.336Z,88.40
2017-07-01T19:43:31.823Z,88.70
2017-07-01T19:45:59.332Z,88.90
2017-07-01T19:48:26.821Z,88.60
2017-07-01T19:50:54.345Z,89.00
2017-07-01T19:53:21.832Z,88.90
2017-07-01T19:55:49.404Z,88.80
2017-07-01T19:58:16.892Z,88.50
2017-07-01T20:00:45.160Z,88.30
2017-07-01T20:03:13.526Z,88.70
2017-07-01T20:05:41.032Z,88.60
2017-07-01T20:08:08.521Z,88.80
2017-07-01T20:10:36.044Z,88.40
2017-07-01T20:13:04.296Z,88.50
2017-07-01T20:15:31.791Z,88.40
2017-07-01T20:17:59.297Z,88.40
2017-07-01T20:20:26.786Z,88.20
2017-07-01T20:22:54.289Z,88.00
2017-07-01T20:25:21.792Z,88.70
2017-07-01T20:27:49.292Z,88.60
2017-07-01T20:30:16.792Z,89.30
2017-07-01T20:32:44.460Z,89.20
2017-07-01T20:35:11.956Z,89.60
2017-07-01T20:37:39.488Z,89.90
2017-07-01T20:40:06.976Z,90.00
2017-07-01T20:42:35.242Z,89.90
2017-07-01T20:45:02.727Z,89.80
2017-07-01T20:47:30.228Z,89.70
2017-07-01T20:49:57.716Z,89.80
2017-07-01T20:52:25.243Z,90.10
2017-07-01T20:54:52.740Z,90.10
2017-07-01T20:57:21.029Z,90.00
2017-07-01T20:59:48.527Z,90.10
2017-07-01T21:02:16.044Z,90.10
2017-07-01T21:04:43.544Z,90.00
2017-07-01T21:07:11.028Z,90.20
2017-07-01T21:09:38.538Z,90.20
2017-07-01T21:12:06.029Z,90.40
2017-07-01T21:14:33.544Z,90.30
2017-07-01T21:17:01.049Z,90.20
2017-07-01T21:19:28.575Z,90.10
2017-07-01T21:21:56.074Z,90.40
2017-07-01T21:24:23.648Z,90.10
2017-07-01T21:26:52.032Z,90.10
2017-07-01T21:29:19.754Z,90.10
2017-07-01T21:31:47.416Z,90.20
2017-07-01T21:34:15.069Z,89.90
2017-07-01T21:36:42.728Z,90.20
2017-07-01T21:39:10.344Z,90.10
2017-07-01T21:41:37.954Z,90.00
2017-07-01T21:44:05.519Z,90.10
2017-07-01T21:46:33.809Z,90.10
2017-07-01T21:49:01.308Z,90.00
2017-07-01T21:51:28.792Z,90.00
2017-07-01T21:53:56.318Z,90.00
2017-07-01T21:56:23.808Z,90.30
2017-07-01T21:58:51.312Z,90.20
2017-07-01T22:01:18.799Z,90.20
2017-07-01T22:03:46.344Z,90.10
2017-07-01T22:06:13.861Z,90.20
2017-07-01T22:08:42.136Z,90.00
2017-07-01T22:11:09.640Z,90.00
2017-07-01T22:13:37.129Z,90.10
2017-07-01T22:16:04.636Z,90.10
2017-07-01T22:18:32.124Z,90.10
2017-07-01T22:20:59.636Z,90.00
2017-07-01T22:23:27.123Z,90.10
2017-07-01T22:25:54.722Z,90.10
2017-07-01T22:28:22.277Z,90.10
2017-07-01T22:30:49.929Z,89.90
2017-07-01T22:33:17.554Z,90.00
2017-07-01T22:35:45.197Z,90.20
2017-07-01T22:38:12.830Z,90.10
2017-07-01T22:40:40.477Z,90.10
2017-07-01T22:43:08.120Z,90.30
2017-07-01T22:45:35.721Z,90.00
2017-07-01T22:48:03.211Z,90.00
2017-07-01T22:50:30.728Z,90.00
2017-07-01T22:52:58.246Z,90.20
2017-07-01T22:55:25.727Z,90.10
2017-07-01T22:57:53.235Z,90.50
2017-07-01T23:00:20.717Z,90.30
2017-07-01T23:02:48.228Z,90.10
2017-07-01T23:05:15.722Z,90.20
2017-07-01T23:07:43.228Z,90.60
2017-07-01T23:10:10.726Z,90.50
2017-07-01T23:12:38.241Z,90.20
2017-07-01T23:15:06.498Z,90.20
2017-07-01T23:17:34.012Z,90.20
2017-07-01T23:20:01.511Z,90.40
2017-07-01T23:22:29.014Z,90.20
2017-07-01T23:24:56.501Z,90.30
2017-07-01T23:27:24.015Z,90.50
2017-07-01T23:29:52.260Z,90.80
2017-07-01T23:32:19.779Z,90.80
2017-07-01T23:34:47.273Z,90.70
2017-07-01T23:37:14.772Z,90.90
2017-07-01T23:39:42.257Z,90.60
2017-07-01T23:42:09.799Z,90.70
2017-07-01T23:44:37.312Z,90.90
2017-07-01T23:47:04.827Z,91.30
2017-07-01T23:49:32.318Z,91.40
2017-07-01T23:52:00.604Z,91.10
2017-07-01T23:54:28.092Z,91.10
2017-07-01T23:56:55.591Z,91.30
2017-07-01T23:59:23.104Z,91.00
